Erwin, TN (37650)

2:57 PM EDT on July 29, 2016 (GMT -0400)
Erwin | | Change Station

Elev 1923 ft 36.15 °N, 82.40 °W | Updated 25 seconds ago

Overcast
Overcast
83.8 °F
Feels Like 88 °F
N
0.0
Wind Variable Wind from NNW
Gusts 0.0 mph

Today
High -- | Low -- °F
--% Chance of Precip.
Yesterday
High -- | Low -- °F
Precip. -- in
Pressure 30.01 in
Visibility 10.0 miles
Clouds Scattered Clouds 3600 ft
Mostly Cloudy 4900 ft
Mostly Cloudy 5500 ft
Heat Index 88 °F
Dew Point 70 °F
Humidity 64%
Rainfall 0.00 in
Snow Depth Not available.
6:34 AM 8:36 PM
Waning Crescent, 20% visible
METAR K0A9 291835Z AUTO 00000KT 10SM -DZ SCT036 BKN049 BKN055 29/20 A3001 RMK AO2
Pressure 30.01 in
Visibility 10.0 miles
Clouds Scattered Clouds 3600 ft
Mostly Cloudy 4900 ft
Mostly Cloudy 5500 ft
Heat Index 88 °F
Dew Point 70 °F
Humidity 64%
Rainfall 0.00 in
Snow Depth Not available.
6:34 AM 8:36 PM
Waning Crescent, 20% visible
METAR K0A9 291835Z AUTO 00000KT 10SM -DZ SCT036 BKN049 BKN055 29/20 A3001 RMK AO2

10-Day Weather Forecast

Almanac

Astronomy

Jul. 29, 2016 Rise Set
Actual Time
Civil Twilight
Nautical Twilight
Astronomical Twilight
Moon
Length of Visible Light
Length of Day
Tomorrow will be .
, % of the Moon is Illuminated

Today's Extremes

State Highs State Lows

Community

WunderPhotos

Upload Photos

1,928,393 photos uploaded!

WunderBlog® & News

Nearby

Air Quality

  Air Quality AQ Index Pollutant
Not available.

Snow Depth

Station Depth Elevation

Earthquake Activity

City Distance Mag. Time & Date
Minimum magnitude displayed is 2.5.

Coastal Water Temperatures

Place Temperature

Stations

Nearby Weather Stations

Station Location Temp. Windchill Dew Point Humidity Wind Precip. Elev Updated Type
                   

Watches & Warnings

There are currently no watches in effect.